Time,TemperatureF,DewpointF,PressureIn,WindDirection,WindDirectionDegrees,WindSpeedMPH,WindSpeedGustMPH,Humidity,HourlyPrecipIn,Conditions,Clouds,dailyrainin,SoftwareType,DateUTC
2013-01-04 00:03:00,21.0,16.0,29.88,SSE,164,2.0,3.0,79,-99.99,,,-99.99,,2013-01-04 05:03:00,
2013-01-04 00:33:00,22.0,18.0,29.86,SE,135,1.0,4.0,83,-99.99,,,-99.99,,2013-01-04 05:33:00,
2013-01-04 00:42:00,22.0,18.0,29.86,SE,135,1.0,4.0,83,-99.99,,,-99.99,,2013-01-04 05:42:00,
2013-01-04 00:53:00,23.0,19.0,29.87,South,184,3.0,3.0,85,-99.99,,,-99.99,,2013-01-04 05:53:00,
2013-01-04 01:02:00,23.0,19.0,29.87,South,184,3.0,3.0,85,-99.99,,,-99.99,,2013-01-04 06:02:00,
2013-01-04 01:12:00,23.0,19.0,29.87,South,184,3.0,3.0,85,-99.99,,,-99.99,,2013-01-04 06:12:00,
2013-01-04 01:22:00,23.0,19.0,29.90,SE,135,1.0,3.0,86,-99.99,,,-99.99,,2013-01-04 06:22:00,
2013-01-04 01:33:00,23.0,19.0,29.90,SE,135,1.0,3.0,86,-99.99,,,-99.99,,2013-01-04 06:33:00,
2013-01-04 01:42:00,23.0,19.0,29.90,SE,135,1.0,3.0,86,-99.99,,,-99.99,,2013-01-04 06:42:00,
2013-01-04 01:52:00,23.0,19.0,29.85,South,180,0.0,2.0,83,-99.99,,,-99.99,,2013-01-04 06:52:00,
2013-01-04 02:02:00,23.0,19.0,29.85,South,180,0.0,2.0,83,-99.99,,,-99.99,,2013-01-04 07:02:00,
2013-01-04 02:12:00,23.0,19.0,29.85,South,180,0.0,2.0,83,-99.99,,,-99.99,,2013-01-04 07:12:00,
2013-01-04 02:22:00,23.0,19.0,29.85,South,180,0.0,2.0,83,-99.99,,,-99.99,,2013-01-04 07:22:00,
2013-01-04 02:32:00,23.0,20.0,29.85,SE,135,2.0,4.0,89,-99.99,,,-99.99,,2013-01-04 07:32:00,
2013-01-04 02:43:00,23.0,20.0,29.85,SE,135,2.0,4.0,89,-99.99,,,-99.99,,2013-01-04 07:43:00,
2013-01-04 02:52:00,24.0,20.0,29.88,SE,126,1.0,2.0,85,-99.99,,,-99.99,,2013-01-04 07:52:00,
2013-01-04 03:02:00,24.0,20.0,29.88,SE,126,1.0,2.0,85,-99.99,,,-99.99,,2013-01-04 08:02:00,
2013-01-04 03:12:00,24.0,20.0,29.88,SE,126,1.0,2.0,85,-99.99,,,-99.99,,2013-01-04 08:12:00,
2013-01-04 03:22:00,23.0,18.0,29.85,SW,227,0.0,1.0,80,-99.99,,,-99.99,,2013-01-04 08:22:00,
2013-01-04 03:32:00,23.0,18.0,29.85,SW,227,0.0,1.0,80,-99.99,,,-99.99,,2013-01-04 08:32:00,
2013-01-04 03:42:00,23.0,18.0,29.85,SW,227,0.0,1.0,80,-99.99,,,-99.99,,2013-01-04 08:42:00,
2013-01-04 03:52:00,23.0,20.0,29.84,SE,135,0.0,1.0,87,-99.99,,,-99.99,,2013-01-04 08:52:00,
2013-01-04 04:02:00,23.0,20.0,29.84,SE,135,0.0,1.0,87,-99.99,,,-99.99,,2013-01-04 09:02:00,